Pagrindinis puslapis
METAR-TAF:

METAR-TAF

Oro uostai :

Novosibirskas, Rusija

platuma: 55-01N, ilguma: 082-38E, Aukštis: 111 m

Dabartinis oras

Ataskaita buvo paskelbta 33 minutes, ne 05:00 UTC
Vėjas 10 kt iš Pietų/Pietvakarių
Temperatūra 20°C
Drėgmė 43%
Slėgis 1016 hPa
Matomumas 10 km arba daugiau
nėra debesų žemiau 1500 m ir nėra kamuolinių lietaus debesų

METAR: UNNT 180500Z 21005MPS CAVOK 20/07 Q1016 R25/090070 R16/090070 NOSIG RMK QFE752/1003

Laikas: 12:33 (05:33 UTC)

Prognozė

Ataskaita buvo paskelbta 3 valandos ir 33 minutes, ne 02:00 UTC
Prognozė galioja nuo 18 metu 03 UTC su 19 metu 03 UTC
Vėjas 10 kt iš Pietvakarių su gūsio iki 19 kt
Matomumas 10 km arba daugiau
Su prošvaistėmis ne aukštis 4000 ft, Liūtiniai kamuoliniai debesys.
Laikinai
nuo 18 metu 03 UTC su 18 metu 12 UTC
Vėjas 14 kt iš Pietų/Pietvakarių su gūsio iki 29 kt
Tapsmas
nuo 18 metu 12 UTC su 18 metu 14 UTC
Vėjas 6 kt iš Pietų su gūsio iki 16 kt

TAF: UNNT 180200Z 1803/1903 22005G10MPS 9999 BKN040CB TEMPO 1803/1812 20007G15MPS BECMG 1812/1814 17003G08MPS

Orai ataskaitas ir orų prognozės (METAR, TAF).

turimą stotys yra geltonos ir raudonos taškus žemėlapyje.

Perkelti pele per norėdami pamatyti stoties vardą.

Tada spustelėkite, norėdami matyti oro stebėjimo ir prognozės.

Norėdami pakeisti žemėlapį: spustelėkite ant žalios mygtukų su juodo kryžiaus žemyn,; žalią mygtuką su brūkšneliu, jei norite nutolinti; arba žalių rodyklių gretimoms žemėlapius.


METAR-TAF: